Monroe, LA (71209)

10:41 AM CST on January 17, 2017 (GMT -0600)
Delta Community College | | Change Station

Elev 80 ft 32.49 °N, 92.03 °W | Updated 8 seconds ago

Light Rain
Light Rain
55.3 °F
Feels Like 55.3 °F
N
2.0
Wind Variable Wind from North
Gusts 3.0 mph

Today
High -- | Low -- °F
--% Chance of Precip.
Yesterday
High -- | Low -- °F
Precip. -- in
Pressure 30.17 in
Visibility 9.0 miles
Clouds Mostly Cloudy 2700 ft
Mostly Cloudy 4000 ft
Overcast 5000 ft
Dew Point 53 °F
Humidity 91%
Rainfall 0.64 in
Snow Depth Not available.
7:09 AM 5:27 PM
Waning Gibbous, 71% visible
METAR KMLU 171553Z 00000KT 9SM -RA BKN027 BKN040 OVC050 13/12 A3017 RMK AO2 RAE1456B20 SLP214 P0002 T01330117
Pressure 30.17 in
Visibility 9.0 miles
Clouds Mostly Cloudy 2700 ft
Mostly Cloudy 4000 ft
Overcast 5000 ft
Dew Point 53 °F
Humidity 91%
Rainfall 0.64 in
Snow Depth Not available.
7:09 AM 5:27 PM
Waning Gibbous, 71% visible
METAR KMLU 171553Z 00000KT 9SM -RA BKN027 BKN040 OVC050 13/12 A3017 RMK AO2 RAE1456B20 SLP214 P0002 T01330117

Get Your Daily Forecast Email!

Thanks for signing up!

Be on the lookout for a verification email in your inbox.

You'll start receiving the daily forecast at 8 AM.

×

10-Day Weather Forecast

Almanac

Astronomy

Jan. 17, 2017 Rise Set
Actual Time
Civil Twilight
Nautical Twilight
Astronomical Twilight
Moon
Length of Visible Light
Length of Day
Tomorrow will be .
, % of the Moon is Illuminated

Today's Extremes

State Highs State Lows

Community

WunderPhotos

Upload Photos

1,962,540 photos uploaded!

WunderBlog® & News

Nearby

Air Quality

  Air Quality AQ Index Pollutant
Not available.

Snow Depth

Station Depth Elevation

Earthquake Activity

City Distance Mag. Time & Date
Minimum magnitude displayed is 2.5.

Coastal Water Temperatures

Place Temperature

Stations

Nearby Weather Stations

Station Location Temp. Windchill Dew Point Humidity Wind Precip. Elev Updated Type
                   

Watches & Warnings

There are currently no watches in effect.